Time;durP1;ratioP1;P1;durP2;ratioP2;P2;SDS_P1;SDS_P2;PMS_P1;PMS_P2;Temp;Humidity;BMP_temperature;BMP_pressure;BME280_temperature;BME280_humidity;BME280_pressure;Samples;Min_cycle;Max_cycle;Signal;HPM_P1;HPM_P2
2023/12/16 00:00:44;;;;;;;0.80;0.80;;;;;;;8.71;100.00;102487.56;4922238;29;20080;-91
2023/12/16 00:03:10;;;;;;;0.80;0.80;;;;;;;8.71;100.00;102502.56;4920197;29;20016;-91
2023/12/16 00:05:36;;;;;;;0.75;0.75;;;;;;;8.55;100.00;102487.31;4936668;29;20032;-91
2023/12/16 00:08:01;;;;;;;0.80;0.80;;;;;;;8.73;100.00;102507.00;4923597;29;20048;-91
2023/12/16 00:10:26;;;;;;;0.70;0.70;;;;;;;8.63;100.00;102497.13;4935016;29;20059;-91
2023/12/16 00:12:52;;;;;;;0.65;0.65;;;;;;;8.72;100.00;102514.94;4919679;28;20012;-91
2023/12/16 00:15:17;;;;;;;0.60;0.60;;;;;;;8.81;100.00;102531.03;4919319;29;20081;-91
2023/12/16 00:17:43;;;;;;;0.80;0.80;;;;;;;8.76;100.00;102528.31;4918401;29;20035;-91
2023/12/16 00:20:09;;;;;;;0.80;0.80;;;;;;;8.65;100.00;102511.31;4918641;29;20042;-91
2023/12/16 00:22:38;;;;;;;0.70;0.70;;;;;;;8.69;100.00;102507.84;4918795;29;20008;-91
2023/12/16 00:25:07;;;;;;;0.70;0.70;;;;;;;8.84;100.00;102539.03;4919882;29;20025;-91
2023/12/16 00:27:33;;;;;;;0.70;0.70;;;;;;;8.78;100.00;102520.38;4923531;29;20032;-91
2023/12/16 00:29:58;;;;;;;0.60;0.60;;;;;;;8.66;100.00;102506.91;4945945;29;20099;-92
2023/12/16 00:32:24;;;;;;;0.80;0.80;;;;;;;8.65;100.00;102503.34;4926381;29;20054;-91
2023/12/16 00:34:49;;;;;;;0.80;0.80;;;;;;;8.71;100.00;102515.84;4919065;29;20029;-91
2023/12/16 00:37:15;;;;;;;0.70;0.70;;;;;;;8.81;100.00;102515.09;4920097;29;20031;-92
2023/12/16 00:39:40;;;;;;;0.70;0.70;;;;;;;8.80;100.00;102508.91;4919530;29;20063;-91
2023/12/16 00:42:07;;;;;;;0.70;0.70;;;;;;;8.64;100.00;102475.06;4923959;29;20051;-91
2023/12/16 00:44:33;;;;;;;0.70;0.70;;;;;;;8.59;100.00;102447.56;4935724;29;20028;-91
2023/12/16 00:46:59;;;;;;;0.80;0.80;;;;;;;8.45;100.00;102416.44;4919997;29;20455;-91
2023/12/16 00:49:25;;;;;;;0.70;0.70;;;;;;;8.74;100.00;102494.66;4931522;29;20208;-91
2023/12/16 00:51:50;;;;;;;0.70;0.70;;;;;;;8.77;100.00;102481.41;4920628;29;20092;-92
2023/12/16 00:54:16;;;;;;;0.70;0.70;;;;;;;8.79;100.00;102485.91;4910462;29;20092;-91
2023/12/16 00:56:41;;;;;;;0.65;0.65;;;;;;;8.83;100.00;102477.09;4917461;29;20058;-91
2023/12/16 00:59:07;;;;;;;0.77;0.77;;;;;;;8.79;100.00;102469.97;4932456;29;20110;-91
2023/12/16 01:01:32;;;;;;;0.75;0.75;;;;;;;8.90;100.00;102478.97;4932728;29;20270;-91
2023/12/16 01:03:57;;;;;;;0.60;0.60;;;;;;;8.97;100.00;102495.84;4897619;29;20046;-91
2023/12/16 01:06:23;;;;;;;0.70;0.70;;;;;;;8.85;100.00;102483.31;4930063;29;20531;-91
2023/12/16 01:08:48;;;;;;;0.80;0.80;;;;;;;8.67;100.00;102442.34;4921905;29;20051;-91
2023/12/16 01:11:14;;;;;;;0.75;0.75;;;;;;;8.99;100.00;102507.41;4915581;29;20055;-91
2023/12/16 01:13:39;;;;;;;0.70;0.70;;;;;;;8.83;100.00;102484.19;4931297;29;20028;-91
2023/12/16 01:16:05;;;;;;;0.60;0.60;;;;;;;8.82;100.00;102485.94;4931303;29;20051;-91
2023/12/16 01:18:30;;;;;;;0.70;0.70;;;;;;;8.73;100.00;102463.69;4914557;29;20453;-92
2023/12/16 01:20:56;;;;;;;0.77;0.77;;;;;;;8.80;100.00;102490.31;4929747;29;20051;-91
2023/12/16 01:23:21;;;;;;;0.70;0.70;;;;;;;8.76;100.00;102484.97;4921338;29;20096;-91
2023/12/16 01:25:47;;;;;;;0.73;0.73;;;;;;;8.85;100.00;102501.88;4916514;29;20063;-91
2023/12/16 01:28:13;;;;;;;0.80;0.80;;;;;;;8.77;100.00;102492.94;4935351;29;20058;-91
2023/12/16 01:30:38;;;;;;;0.70;0.70;;;;;;;8.52;100.00;102453.66;4930421;29;20031;-91
2023/12/16 01:33:04;;;;;;;0.70;0.70;;;;;;;8.85;100.00;102519.56;4918032;29;20046;-91
2023/12/16 01:35:29;;;;;;;0.70;0.70;;;;;;;8.88;100.00;102516.97;4919024;29;20035;-91
2023/12/16 01:37:54;;;;;;;0.70;0.70;;;;;;;8.76;100.00;102500.88;4912574;29;20036;-91
2023/12/16 01:40:20;;;;;;;0.60;0.60;;;;;;;8.79;100.00;102508.88;4923928;29;20087;-91
2023/12/16 01:42:46;;;;;;;0.60;0.60;;;;;;;8.78;100.00;102512.41;4936924;29;20028;-91
2023/12/16 01:45:11;;;;;;;0.50;0.50;;;;;;;8.80;100.00;102513.28;4937624;29;20036;-91
2023/12/16 01:47:37;;;;;;;0.68;0.68;;;;;;;8.80;100.00;102519.50;4950998;29;20076;-91
2023/12/16 01:50:03;;;;;;;0.60;0.60;;;;;;;8.85;100.00;102524.88;4937774;29;20035;-91
2023/12/16 01:52:30;;;;;;;0.70;0.70;;;;;;;8.76;100.00;102516.78;4937924;29;20027;-91
2023/12/16 01:54:56;;;;;;;0.65;0.65;;;;;;;8.76;100.00;102514.16;4951139;29;20028;-91
2023/12/16 01:57:22;;;;;;;0.70;0.70;;;;;;;8.66;100.00;102497.19;4938350;29;20026;-91
2023/12/16 01:59:47;;;;;;;0.70;0.70;;;;;;;8.71;100.00;102505.22;4934565;29;20106;-92
2023/12/16 02:02:14;;;;;;;0.80;0.80;;;;;;;8.73;100.00;102522.06;4904970;29;20052;-91
2023/12/16 02:04:40;;;;;;;0.70;0.70;;;;;;;8.66;100.00;102512.22;4914172;29;20087;-91
2023/12/16 02:07:05;;;;;;;0.70;0.70;;;;;;;8.81;100.00;102533.69;4912843;29;20039;-91
2023/12/16 02:09:31;;;;;;;0.63;0.63;;;;;;;8.65;100.00;102502.50;4936146;29;20028;-91
2023/12/16 02:11:57;;;;;;;0.75;0.75;;;;;;;8.63;100.00;102509.53;4942245;29;20682;-91
2023/12/16 02:14:23;;;;;;;0.70;0.70;;;;;;;8.48;100.00;102477.47;4933719;29;20030;-91
2023/12/16 02:16:48;;;;;;;0.75;0.75;;;;;;;8.61;100.00;102506.84;4917086;29;20024;-91
2023/12/16 02:19:23;;;;;;;0.75;0.75;;;;;;;8.65;100.00;102521.06;4933860;29;20043;-91
2023/12/16 02:21:48;;;;;;;0.75;0.75;;;;;;;8.53;100.00;102497.00;4935368;29;20055;-91
2023/12/16 02:24:14;;;;;;;0.70;0.70;;;;;;;8.54;100.00;102499.66;4917914;29;20024;-91
2023/12/16 02:26:39;;;;;;;0.73;0.73;;;;;;;8.57;100.00;102520.03;4936040;29;20034;-91
2023/12/16 02:29:05;;;;;;;0.70;0.70;;;;;;;8.51;100.00;102518.19;4918683;29;20040;-91
2023/12/16 02:31:30;;;;;;;0.70;0.70;;;;;;;8.54;100.00;102531.50;4919575;29;20035;-91
2023/12/16 02:33:56;;;;;;;0.60;0.60;;;;;;;8.59;100.00;102534.22;4919300;29;20028;-91
2023/12/16 02:36:22;;;;;;;0.70;0.70;;;;;;;8.62;100.00;102535.16;4918484;29;20012;-90
2023/12/16 02:38:47;;;;;;;0.70;0.70;;;;;;;8.72;100.00;102560.06;4918586;29;20032;-92
2023/12/16 02:41:13;;;;;;;0.80;0.80;;;;;;;8.65;100.00;102536.97;4946191;29;20443;-91
2023/12/16 02:43:39;;;;;;;0.80;0.80;;;;;;;8.74;100.00;102542.41;4917653;29;20036;-91
2023/12/16 02:46:04;;;;;;;0.70;0.70;;;;;;;8.69;100.00;102538.78;4915514;29;20028;-91
2023/12/16 02:48:29;;;;;;;0.70;0.70;;;;;;;8.62;100.00;102531.59;4915420;29;20042;-92
2023/12/16 02:50:55;;;;;;;0.80;0.80;;;;;;;8.60;100.00;102530.72;4932339;29;20074;-91
2023/12/16 02:53:20;;;;;;;0.70;0.70;;;;;;;8.68;100.00;102550.28;4914108;29;20072;-91
2023/12/16 02:55:46;;;;;;;0.68;0.68;;;;;;;8.54;100.00;102533.25;4931698;29;20114;-91
2023/12/16 02:58:11;;;;;;;0.80;0.80;;;;;;;8.75;100.00;102565.41;4913761;29;20071;-91
2023/12/16 03:00:36;;;;;;;0.85;0.85;;;;;;;8.54;100.00;102534.16;4913649;29;20043;-91
2023/12/16 03:03:02;;;;;;;0.70;0.70;;;;;;;8.71;100.00;102574.22;4912874;29;20035;-91
2023/12/16 03:05:28;;;;;;;0.65;0.65;;;;;;;8.66;100.00;102558.22;4916611;28;20043;-91
2023/12/16 03:07:53;;;;;;;0.70;0.70;;;;;;;8.65;100.00;102555.56;4936066;29;20119;-92
2023/12/16 03:10:18;;;;;;;0.70;0.70;;;;;;;8.58;100.00;102541.25;4935971;29;20035;-91
2023/12/16 03:12:45;;;;;;;0.52;0.52;;;;;;;8.63;100.00;102551.97;4935688;29;20034;-91
2023/12/16 03:15:10;;;;;;;0.80;0.80;;;;;;;8.63;100.00;102557.28;4951586;29;20099;-91
2023/12/16 03:17:36;;;;;;;0.60;0.60;;;;;;;8.66;100.00;102576.78;4927496;29;20135;-91
2023/12/16 03:20:03;;;;;;;0.77;0.77;;;;;;;8.54;100.00;102557.13;4919264;29;20052;-92
2023/12/16 03:22:28;;;;;;;0.70;0.70;;;;;;;8.51;100.00;102557.06;4918666;29;20031;-91
2023/12/16 03:24:53;;;;;;;0.80;0.80;;;;;;;8.54;100.00;102573.94;4918815;29;20024;-91
2023/12/16 03:27:19;;;;;;;0.80;0.80;;;;;;;8.58;100.00;102582.84;4933058;29;20035;-91
2023/12/16 03:29:44;;;;;;;0.70;0.70;;;;;;;8.50;100.00;102561.47;4933206;29;20036;-91
2023/12/16 03:32:10;;;;;;;0.70;0.70;;;;;;;8.54;100.00;102578.34;4917716;29;20027;-91
2023/12/16 03:34:35;;;;;;;0.70;0.70;;;;;;;8.28;100.00;102547.84;4934542;29;20054;-91
2023/12/16 03:37:01;;;;;;;0.77;0.77;;;;;;;8.49;100.00;102599.50;4935406;28;20028;-91
2023/12/16 03:39:26;;;;;;;0.70;0.70;;;;;;;8.44;100.00;102572.00;4941658;29;20175;-91
2023/12/16 03:41:52;;;;;;;0.82;0.82;;;;;;;8.42;100.00;102573.72;4922839;29;20042;-91
2023/12/16 03:44:17;;;;;;;0.60;0.60;;;;;;;8.41;100.00;102569.28;4934095;29;20096;-91
2023/12/16 03:46:42;;;;;;;0.70;0.70;;;;;;;8.49;100.00;102572.97;4918958;28;20065;-91
2023/12/16 03:49:08;;;;;;;0.80;0.80;;;;;;;8.55;100.00;102583.66;4916592;29;20016;-91
2023/12/16 03:51:33;;;;;;;0.70;0.70;;;;;;;8.46;100.00;102574.66;4925168;29;20004;-91
2023/12/16 03:53:59;;;;;;;0.65;0.65;;;;;;;8.47;100.00;102569.38;4936545;29;20016;-91
2023/12/16 03:56:24;;;;;;;0.60;0.60;;;;;;;8.53;100.00;102581.88;4937201;28;20087;-91
2023/12/16 03:58:50;;;;;;;0.70;0.70;;;;;;;8.41;100.00;102558.69;4919422;29;20499;-91
2023/12/16 04:01:15;;;;;;;0.60;0.60;;;;;;;8.33;100.00;102552.38;4932610;28;20031;-91
2023/12/16 04:03:41;;;;;;;0.70;0.70;;;;;;;8.39;100.00;102547.16;4936134;29;20028;-91
2023/12/16 04:06:13;;;;;;;0.70;0.70;;;;;;;8.40;100.00;102561.31;4934604;29;20047;-90
2023/12/16 04:08:39;;;;;;;0.60;0.60;;;;;;;8.53;100.00;102571.25;4940163;29;20028;-91
2023/12/16 04:11:05;;;;;;;0.70;0.70;;;;;;;8.37;100.00;102545.38;4899051;29;20028;-91
2023/12/16 04:13:31;;;;;;;0.57;0.57;;;;;;;8.32;100.00;102545.25;4936576;29;20042;-91
2023/12/16 04:15:56;;;;;;;0.80;0.80;;;;;;;8.50;100.00;102566.78;4918966;29;20028;-90
2023/12/16 04:18:23;;;;;;;0.70;0.70;;;;;;;8.36;100.00;102546.22;4918944;28;20481;-91
2023/12/16 04:20:48;;;;;;;0.80;0.80;;;;;;;8.37;100.00;102546.22;4919333;29;20074;-91
2023/12/16 04:23:13;;;;;;;0.77;0.77;;;;;;;8.49;100.00;102569.41;4937039;29;20035;-92
2023/12/16 04:25:39;;;;;;;0.80;0.80;;;;;;;8.51;100.00;102573.00;4936321;29;20027;-91
2023/12/16 04:28:04;;;;;;;0.70;0.70;;;;;;;8.32;100.00;102528.47;4936606;29;20024;-91
2023/12/16 04:30:30;;;;;;;0.60;0.60;;;;;;;8.56;100.00;102573.97;4939586;29;20067;-91
2023/12/16 04:32:55;;;;;;;0.80;0.80;;;;;;;8.40;100.00;102548.06;4924474;29;20028;-91
2023/12/16 04:35:20;;;;;;;0.80;0.80;;;;;;;8.39;100.00;102541.84;4942349;28;20086;-91
2023/12/16 04:37:46;;;;;;;0.60;0.60;;;;;;;8.41;100.00;102549.84;4934500;29;20096;-91
2023/12/16 04:40:11;;;;;;;0.70;0.70;;;;;;;8.15;100.00;102503.41;4932514;29;20038;-91
2023/12/16 04:42:41;;;;;;;0.70;0.70;;;;;;;8.38;100.00;102544.47;4940282;29;20023;-92
2023/12/16 04:45:08;;;;;;;0.70;0.70;;;;;;;8.50;100.00;102560.59;4954151;29;20043;-91
2023/12/16 04:47:36;;;;;;;0.77;0.77;;;;;;;8.33;100.00;102539.09;4934292;29;20122;-90
2023/12/16 04:50:03;;;;;;;0.60;0.60;;;;;;;8.56;100.00;102569.56;4934757;29;20377;-92
2023/12/16 04:52:28;;;;;;;0.70;0.70;;;;;;;8.38;100.00;102547.13;4940041;29;20037;-91
2023/12/16 04:54:54;;;;;;;0.70;0.70;;;;;;;8.33;100.00;102546.16;4934228;29;20342;-91
2023/12/16 04:57:19;;;;;;;0.73;0.73;;;;;;;8.29;100.00;102539.00;4939166;29;20036;-91
2023/12/16 04:59:45;;;;;;;0.73;0.73;;;;;;;8.31;100.00;102545.25;4939346;29;20028;-91
2023/12/16 05:02:11;;;;;;;0.70;0.70;;;;;;;8.37;100.00;102553.31;4928032;29;20008;-91
2023/12/16 05:04:36;;;;;;;0.70;0.70;;;;;;;8.50;100.00;102579.16;4922398;29;20103;-91
2023/12/16 05:07:02;;;;;;;0.70;0.70;;;;;;;8.51;100.00;102579.19;4917028;29;20485;-91
2023/12/16 05:09:27;;;;;;;0.70;0.70;;;;;;;8.43;100.00;102569.31;4917828;29;20091;-91
2023/12/16 05:11:53;;;;;;;0.70;0.70;;;;;;;8.43;100.00;102558.72;4917991;29;20032;-91
2023/12/16 05:14:18;;;;;;;0.75;0.75;;;;;;;8.46;100.00;102569.38;4935265;29;20020;-91
2023/12/16 05:16:44;;;;;;;0.60;0.60;;;;;;;8.50;100.00;102579.16;4938886;29;20045;-91
2023/12/16 05:19:09;;;;;;;0.70;0.70;;;;;;;8.44;100.00;102560.47;4930902;29;20107;-92
2023/12/16 05:21:35;;;;;;;0.65;0.65;;;;;;;8.48;100.00;102578.25;4926161;29;20079;-92
2023/12/16 05:24:00;;;;;;;0.70;0.70;;;;;;;8.34;100.00;102554.13;4934614;29;20472;-91
2023/12/16 05:26:26;;;;;;;0.70;0.70;;;;;;;8.48;100.00;102572.94;4919838;29;20074;-91
2023/12/16 05:28:51;;;;;;;0.70;0.70;;;;;;;8.25;100.00;102529.25;4922770;29;20028;-91
2023/12/16 05:31:17;;;;;;;0.70;0.70;;;;;;;8.34;100.00;102548.84;4918696;29;20876;-92
2023/12/16 05:33:45;;;;;;;0.80;0.80;;;;;;;8.55;100.00;102585.44;4919098;29;20032;-91
2023/12/16 05:36:11;;;;;;;0.70;0.70;;;;;;;8.48;100.00;102567.63;4918287;29;20113;-91
2023/12/16 05:38:38;;;;;;;0.70;0.70;;;;;;;8.38;100.00;102550.69;4908561;29;20056;-92
2023/12/16 05:41:03;;;;;;;0.60;0.60;;;;;;;8.39;100.00;102557.75;4899333;29;20025;-91
2023/12/16 05:43:29;;;;;;;0.73;0.73;;;;;;;8.41;100.00;102557.78;4917153;29;20036;-91
2023/12/16 05:45:54;;;;;;;0.80;0.80;;;;;;;8.38;100.00;102550.69;4933403;29;20039;-91
2023/12/16 05:48:20;;;;;;;0.77;0.77;;;;;;;8.34;100.00;102547.94;4920179;29;20039;-91
2023/12/16 05:50:46;;;;;;;0.80;0.80;;;;;;;8.22;100.00;102526.50;4917113;29;20036;-91
2023/12/16 05:53:11;;;;;;;0.80;0.80;;;;;;;8.39;100.00;102559.50;4933803;29;20060;-91
2023/12/16 05:55:37;;;;;;;0.70;0.70;;;;;;;8.34;100.00;102547.94;4916687;29;20029;-91
2023/12/16 05:58:02;;;;;;;0.70;0.70;;;;;;;8.27;100.00;102546.06;4927579;29;20067;-92
2023/12/16 06:00:28;;;;;;;0.65;0.65;;;;;;;8.45;100.00;102564.94;4950231;29;20034;-91
2023/12/16 06:02:53;;;;;;;0.70;0.70;;;;;;;8.43;100.00;102570.22;4918124;29;20540;-91
2023/12/16 06:05:19;;;;;;;0.60;0.60;;;;;;;8.50;100.00;102582.69;4917800;29;20115;-91
2023/12/16 06:07:44;;;;;;;0.80;0.80;;;;;;;8.51;100.00;102584.50;4922315;29;20062;-92
2023/12/16 06:10:11;;;;;;;0.63;0.63;;;;;;;8.50;100.00;102584.47;4917496;29;20028;-91
2023/12/16 06:12:36;;;;;;;0.60;0.60;;;;;;;8.47;100.00;102587.06;4921240;29;20061;-92
2023/12/16 06:15:02;;;;;;;0.63;0.63;;;;;;;8.31;100.00;102555.84;4917556;29;20036;-92
2023/12/16 06:17:28;;;;;;;0.70;0.70;;;;;;;8.39;100.00;102583.38;4915165;29;20028;-91
2023/12/16 06:19:53;;;;;;;0.70;0.70;;;;;;;8.57;100.00;102604.91;4924483;29;20043;-91
2023/12/16 06:22:18;;;;;;;0.60;0.60;;;;;;;8.41;100.00;102584.31;4937061;29;20019;-91
2023/12/16 06:24:44;;;;;;;0.80;0.80;;;;;;;8.42;100.00;102584.31;4937006;29;20087;-92
2023/12/16 06:27:09;;;;;;;0.60;0.60;;;;;;;8.59;100.00;102613.78;4931173;29;20313;-91
2023/12/16 06:29:35;;;;;;;0.68;0.68;;;;;;;8.51;100.00;102594.22;4933408;29;20161;-92
2023/12/16 06:32:00;;;;;;;0.63;0.63;;;;;;;8.41;100.00;102584.31;4952897;29;20049;-91
2023/12/16 06:34:26;;;;;;;0.80;0.80;;;;;;;8.25;100.00;102564.59;4920369;29;20043;-91
2023/12/16 06:36:51;;;;;;;0.60;0.60;;;;;;;8.37;100.00;102590.44;4917520;29;20084;-91
2023/12/16 06:39:17;;;;;;;0.80;0.80;;;;;;;8.35;100.00;102576.25;4916456;29;20052;-92
2023/12/16 06:41:42;;;;;;;0.80;0.80;;;;;;;8.34;100.00;102591.25;4901540;29;20143;-91
2023/12/16 06:44:08;;;;;;;0.70;0.70;;;;;;;8.42;100.00;102602.88;4917292;29;20105;-91
2023/12/16 06:46:33;;;;;;;0.80;0.80;;;;;;;8.54;100.00;102626.09;4915609;29;20103;-91
2023/12/16 06:48:59;;;;;;;0.70;0.70;;;;;;;8.39;100.00;102588.69;4915532;29;20028;-91
2023/12/16 06:51:24;;;;;;;0.60;0.60;;;;;;;8.52;100.00;102625.16;4918946;29;20020;-92
2023/12/16 06:53:50;;;;;;;0.70;0.70;;;;;;;8.36;100.00;102591.28;4934852;29;20027;-91
2023/12/16 06:56:15;;;;;;;0.70;0.70;;;;;;;8.32;100.00;102573.56;4950505;29;20092;-91
2023/12/16 06:58:41;;;;;;;0.70;0.70;;;;;;;8.24;100.00;102567.22;4916888;29;20098;-91
2023/12/16 07:01:11;;;;;;;0.70;0.70;;;;;;;8.33;100.00;102594.78;4916049;29;20032;-91
2023/12/16 07:03:37;;;;;;;0.73;0.73;;;;;;;8.22;100.00;102567.13;4915723;29;20084;-91
2023/12/16 07:06:03;;;;;;;0.70;0.70;;;;;;;8.39;100.00;102604.59;4918672;29;20036;-91
2023/12/16 07:08:29;;;;;;;0.73;0.73;;;;;;;8.40;100.00;102611.72;4923580;29;20028;-91
2023/12/16 07:10:54;;;;;;;0.70;0.70;;;;;;;8.37;100.00;102598.41;4916111;29;20043;-91
2023/12/16 07:13:19;;;;;;;0.70;0.70;;;;;;;8.39;100.00;102610.81;4918019;29;20028;-91
2023/12/16 07:15:45;;;;;;;0.77;0.77;;;;;;;8.17;100.00;102570.59;4915810;29;20030;-92
2023/12/16 07:18:11;;;;;;;0.85;0.85;;;;;;;8.48;100.00;102626.00;4916061;29;20100;-91
2023/12/16 07:20:36;;;;;;;0.70;0.70;;;;;;;8.21;100.00;102583.03;4918679;29;20108;-91
2023/12/16 07:23:03;;;;;;;0.70;0.70;;;;;;;8.21;100.00;102607.78;4924743;29;20036;-91
2023/12/16 07:25:28;;;;;;;0.70;0.70;;;;;;;8.43;100.00;102640.94;4951116;29;20051;-91
2023/12/16 07:27:54;;;;;;;0.70;0.70;;;;;;;8.33;100.00;102628.38;4925113;29;20040;-91
2023/12/16 07:30:19;;;;;;;0.90;0.90;;;;;;;8.34;100.00;102617.78;4925011;29;20030;-91
2023/12/16 07:32:45;;;;;;;0.70;0.70;;;;;;;8.34;100.00;102603.63;4918332;29;20032;-91
2023/12/16 07:35:13;;;;;;;0.70;0.70;;;;;;;8.17;100.00;102581.19;4915882;29;20024;-91
2023/12/16 07:37:40;;;;;;;0.80;0.80;;;;;;;8.34;100.00;102611.56;4913427;29;20028;-91
2023/12/16 07:40:07;;;;;;;0.75;0.75;;;;;;;8.49;100.00;102638.38;4899605;29;20024;-91
2023/12/16 07:42:35;;;;;;;0.65;0.65;;;;;;;8.31;100.00;102616.81;4925432;29;20024;-92
2023/12/16 07:45:00;;;;;;;0.60;0.60;;;;;;;8.33;100.00;102615.09;4911388;29;20028;-91
2023/12/16 07:47:26;;;;;;;0.80;0.80;;;;;;;8.36;100.00;102628.41;4930539;29;20098;-91
2023/12/16 07:49:51;;;;;;;0.70;0.70;;;;;;;8.27;100.00;102609.72;4946561;29;20032;-91
2023/12/16 07:52:16;;;;;;;0.63;0.63;;;;;;;8.42;100.00;102636.50;4912929;29;20032;-91
2023/12/16 07:54:42;;;;;;;0.70;0.70;;;;;;;8.32;100.00;102619.50;4914705;29;20036;-92
2023/12/16 07:57:07;;;;;;;0.70;0.70;;;;;;;8.58;100.00;102665.06;4926821;29;20110;-91
2023/12/16 07:59:33;;;;;;;0.77;0.77;;;;;;;8.57;100.00;102669.47;4930918;29;20028;-91
2023/12/16 08:02:00;;;;;;;0.80;0.80;;;;;;;8.48;100.00;102626.88;4935468;29;20035;-92
2023/12/16 08:04:25;;;;;;;0.70;0.70;;;;;;;8.55;100.00;102644.69;4936400;29;20066;-91
2023/12/16 08:06:50;;;;;;;0.80;0.80;;;;;;;8.50;100.00;102642.84;4935704;29;20031;-91
2023/12/16 08:09:16;;;;;;;0.70;0.70;;;;;;;8.54;100.00;102650.84;4923273;29;20032;-91
2023/12/16 08:11:41;;;;;;;0.70;0.70;;;;;;;8.52;100.00;102643.72;4934482;29;20163;-91
2023/12/16 08:14:07;;;;;;;0.60;0.60;;;;;;;8.69;100.00;102668.81;4918173;29;20036;-91
2023/12/16 08:16:33;;;;;;;0.80;0.80;;;;;;;8.51;100.00;102640.19;4919326;29;20024;-91
2023/12/16 08:18:58;;;;;;;0.70;0.70;;;;;;;8.65;100.00;102661.66;4926228;29;20056;-91
2023/12/16 08:21:24;;;;;;;0.70;0.70;;;;;;;8.64;100.00;102646.59;4937056;29;20052;-91
2023/12/16 08:23:49;;;;;;;0.80;0.80;;;;;;;8.71;100.00;102667.06;4936027;29;20043;-91
2023/12/16 08:26:14;;;;;;;0.70;0.70;;;;;;;8.69;100.00;102647.56;4935928;29;20028;-92
2023/12/16 08:28:41;;;;;;;0.75;0.75;;;;;;;8.77;100.00;102662.75;4934451;29;20031;-91
2023/12/16 08:31:07;;;;;;;0.63;0.63;;;;;;;8.66;100.00;102634.25;4953815;29;20042;-91
2023/12/16 08:33:34;;;;;;;0.70;0.70;;;;;;;8.93;100.00;102677.16;4932343;29;20167;-91
2023/12/16 08:35:59;;;;;;;0.70;0.70;;;;;;;8.82;100.00;102654.88;4918213;29;20024;-91
2023/12/16 08:38:25;;;;;;;0.70;0.70;;;;;;;8.95;100.00;102689.59;4924647;29;20020;-91
2023/12/16 08:40:53;;;;;;;0.90;0.90;;;;;;;8.91;100.00;102673.63;4915756;29;20051;-91
2023/12/16 08:43:19;;;;;;;0.60;0.60;;;;;;;8.91;100.00;102671.84;4917509;29;20028;-92
2023/12/16 08:45:44;;;;;;;0.70;0.70;;;;;;;8.89;100.00;102651.47;4930086;29;20020;-91
2023/12/16 08:48:10;;;;;;;0.75;0.75;;;;;;;9.05;100.00;102680.03;4916244;29;20024;-91
2023/12/16 08:50:35;;;;;;;0.63;0.63;;;;;;;9.00;100.00;102665.78;4916389;29;20059;-91
2023/12/16 08:53:01;;;;;;;0.75;0.75;;;;;;;9.00;100.00;102679.06;4916639;29;20072;-91
2023/12/16 08:55:27;;;;;;;0.80;0.80;;;;;;;9.03;100.00;102676.44;4925425;29;20027;-91
2023/12/16 08:57:53;;;;;;;0.65;0.65;;;;;;;9.10;100.00;102689.84;4935938;29;20054;-92
2023/12/16 09:00:19;;;;;;;0.70;0.70;;;;;;;8.98;100.00;102663.09;4931548;29;20028;-91
2023/12/16 09:02:44;;;;;;;0.60;0.60;;;;;;;9.09;100.00;102680.09;4918444;29;20027;-91
2023/12/16 09:05:10;;;;;;;0.70;0.70;;;;;;;9.24;100.00;102692.75;4915535;29;20028;-91
2023/12/16 09:07:35;;;;;;;0.70;0.70;;;;;;;9.29;100.00;102710.50;4934532;29;20040;-91
2023/12/16 09:10:01;;;;;;;0.77;0.77;;;;;;;9.31;100.00;102699.91;4915196;29;20075;-91
2023/12/16 09:12:26;;;;;;;0.80;0.80;;;;;;;9.45;100.00;102716.97;4914064;29;20112;-92
2023/12/16 09:14:52;;;;;;;0.70;0.70;;;;;;;9.27;100.00;102688.34;4915688;29;20035;-91
2023/12/16 09:17:17;;;;;;;0.70;0.70;;;;;;;9.28;100.00;102699.88;4927298;29;20032;-91
2023/12/16 09:19:43;;;;;;;0.70;0.70;;;;;;;9.10;100.00;102667.72;4951329;29;20039;-91
2023/12/16 09:22:09;;;;;;;0.70;0.70;;;;;;;9.29;100.00;102697.22;4933861;29;20039;-91
2023/12/16 09:24:34;;;;;;;0.70;0.70;;;;;;;9.51;100.00;102714.38;4952072;29;20038;-91
2023/12/16 09:27:00;;;;;;;0.70;0.70;;;;;;;9.36;100.00;102682.28;4935051;29;20023;-91
2023/12/16 09:29:25;;;;;;;0.70;0.70;;;;;;;9.58;100.00;102710.06;4951941;29;20023;-91
2023/12/16 09:31:51;;;;;;;0.63;0.63;;;;;;;9.53;100.00;102699.38;4934343;29;20050;-91
2023/12/16 09:34:16;;;;;;;0.73;0.73;;;;;;;9.82;100.00;102727.22;4934531;29;20050;-91
2023/12/16 09:36:42;;;;;;;0.70;0.70;;;;;;;9.89;100.00;102718.47;4915352;29;20020;-92
2023/12/16 09:39:10;;;;;;;0.65;0.65;;;;;;;9.90;100.00;102709.63;4930247;29;20030;-91
2023/12/16 09:41:42;;;;;;;0.60;0.60;;;;;;;10.13;100.00;102728.56;4912475;29;20028;-92
2023/12/16 09:44:09;;;;;;;0.63;0.63;;;;;;;10.28;100.00;102723.44;4908211;29;20496;-91
2023/12/16 09:46:36;;;;;;;0.60;0.60;;;;;;;10.48;100.00;102722.78;4906720;29;20033;-91
2023/12/16 09:49:02;;;;;;;0.70;0.70;;;;;;;10.60;100.00;102730.91;4931128;29;20028;-92
2023/12/16 09:51:28;;;;;;;0.70;0.70;;;;;;;10.86;100.00;102735.56;4918819;29;20016;-91
2023/12/16 09:53:54;;;;;;;0.70;0.70;;;;;;;10.92;100.00;102741.88;4917483;29;20091;-91
2023/12/16 09:56:20;;;;;;;0.60;0.60;;;;;;;10.83;100.00;102735.53;4916629;29;20115;-91
2023/12/16 09:58:47;;;;;;;0.70;0.70;;;;;;;11.03;100.00;102741.94;4920492;29;20099;-91
2023/12/16 10:01:13;;;;;;;0.70;0.70;;;;;;;11.06;100.00;102712.69;4930507;29;20020;-91
2023/12/16 10:03:40;;;;;;;0.57;0.57;;;;;;;11.66;100.00;102710.50;4919975;29;20039;-91
2023/12/16 10:06:06;;;;;;;0.70;0.70;;;;;;;12.44;100.00;102716.16;4934459;29;20024;-90
2023/12/16 10:08:36;;;;;;;0.70;0.70;;;;;;;13.26;98.72;102710.94;4923528;29;20031;-90
2023/12/16 10:11:03;;;;;;;0.60;0.60;;;;;;;13.60;88.13;102710.00;4917730;29;20053;-91
2023/12/16 10:13:31;;;;;;;0.60;0.60;;;;;;;14.00;85.57;102736.63;4911820;29;20056;-90
2023/12/16 10:15:57;;;;;;;0.60;0.60;;;;;;;14.00;82.66;102731.28;4920127;29;20021;-91
2023/12/16 10:18:23;;;;;;;0.60;0.60;;;;;;;14.05;82.88;102731.28;4934132;29;20031;-91
2023/12/16 10:20:49;;;;;;;0.60;0.60;;;;;;;13.79;81.63;102711.75;4920232;29;20132;-91
2023/12/16 10:23:14;;;;;;;0.50;0.50;;;;;;;13.72;80.17;102726.91;4912707;29;20484;-91
2023/12/16 10:25:41;;;;;;;0.55;0.55;;;;;;;13.74;80.12;102698.38;4919927;29;20020;-90
2023/12/16 10:28:06;;;;;;;0.60;0.60;;;;;;;13.96;79.87;102704.53;4919496;29;20012;-91
2023/12/16 10:30:32;;;;;;;0.50;0.50;;;;;;;14.92;77.39;102701.34;4910281;29;20035;-90
2023/12/16 10:33:03;;;;;;;0.55;0.55;;;;;;;16.74;71.34;102684.94;4912816;29;20062;-90
2023/12/16 10:35:33;;;;;;;0.50;0.50;;;;;;;18.38;59.33;102687.22;4898112;29;20042;-90
2023/12/16 10:37:59;;;;;;;0.50;0.50;;;;;;;19.32;54.96;102711.03;4930430;29;20032;-90
2023/12/16 10:40:24;;;;;;;0.50;0.50;;;;;;;20.09;52.37;102708.91;4914114;29;20059;-91
2023/12/16 10:42:50;;;;;;;0.50;0.50;;;;;;;20.16;49.46;102705.13;4911963;29;20028;-91
2023/12/16 10:45:16;;;;;;;0.40;0.40;;;;;;;20.61;48.83;102684.78;4927035;29;20055;-90
2023/12/16 10:47:41;;;;;;;0.38;0.38;;;;;;;20.93;46.97;102689.16;4924970;29;20029;-91
2023/12/16 10:50:07;;;;;;;0.43;0.43;;;;;;;20.73;45.79;102694.31;4911446;29;20039;-91
2023/12/16 10:52:43;;;;;;;0.40;0.40;;;;;;;20.84;45.93;102690.34;4910639;29;20025;-91
2023/12/16 10:55:16;;;;;;;0.40;0.40;;;;;;;21.21;44.84;102672.91;4928978;29;20475;-91
2023/12/16 10:57:49;;;;;;;0.30;0.30;;;;;;;21.32;45.34;102681.53;4933257;29;20171;-92
2023/12/16 11:00:23;;;;;;;0.30;0.30;;;;;;;20.83;45.28;102694.00;4930632;29;20031;-90
2023/12/16 11:02:58;;;;;;;0.30;0.30;;;;;;;21.42;45.60;102693.81;4933436;29;20057;-90
2023/12/16 11:05:34;;;;;;;0.28;0.28;;;;;;;22.01;44.09;102689.84;4931287;29;20047;-91
2023/12/16 11:08:04;;;;;;;0.30;0.30;;;;;;;22.05;43.49;102688.81;4926375;29;20052;-91
2023/12/16 11:10:33;;;;;;;0.30;0.30;;;;;;;21.98;44.42;102662.88;4913604;29;20024;-90
2023/12/16 11:13:00;;;;;;;0.20;0.20;;;;;;;22.24;42.96;102681.72;4913969;29;20031;-90
2023/12/16 11:15:27;;;;;;;0.25;0.25;;;;;;;21.86;43.39;102676.91;4913099;29;20015;-91
2023/12/16 11:18:04;;;;;;;0.20;0.20;;;;;;;21.39;43.12;102667.75;4914898;29;20396;-90